Time;durP1;ratioP1;P1;durP2;ratioP2;P2;SDS_P1;SDS_P2;PMS_P1;PMS_P2;Temp;Humidity;BMP_temperature;BMP_pressure;BME280_temperature;BME280_humidity;BME280_pressure;Samples;Min_cycle;Max_cycle;Signal;HPM_P1;HPM_P2
2021/12/26 00:00:31;;;;;;;13.47;7.20;;;;;;;-3.86;77.05;100620.47;10434967;28;20503;-85
2021/12/26 00:05:32;;;;;;;9.55;6.60;;;;;;;-3.85;77.28;100622.28;10451649;28;20048;-85
2021/12/26 00:10:33;;;;;;;11.97;6.67;;;;;;;-3.87;76.97;100613.53;10452133;28;20469;-85
2021/12/26 00:15:36;;;;;;;12.93;6.63;;;;;;;-3.85;77.68;100612.03;10492187;28;20479;-85
2021/12/26 00:20:38;;;;;;;13.50;6.35;;;;;;;-3.84;78.01;100611.28;10459430;28;20031;-85
2021/12/26 00:25:38;;;;;;;14.20;8.15;;;;;;;-3.77;78.41;100612.78;10459767;28;20086;-85
2021/12/26 00:30:39;;;;;;;10.60;6.40;;;;;;;-3.64;77.53;100614.94;10457783;28;20029;-85
2021/12/26 00:35:40;;;;;;;15.13;6.90;;;;;;;-3.61;78.29;100611.03;10458954;28;20481;-85
2021/12/26 00:40:41;;;;;;;13.53;6.57;;;;;;;-3.50;78.47;100600.94;10457664;28;20037;-84
2021/12/26 00:45:41;;;;;;;12.80;6.60;;;;;;;-3.31;77.47;100604.59;10458797;28;20033;-85
2021/12/26 00:50:42;;;;;;;9.90;5.13;;;;;;;-3.13;76.83;100596.91;10490556;28;20083;-88
2021/12/26 00:55:43;;;;;;;12.65;6.20;;;;;;;-3.05;76.39;100608.78;10490506;28;20040;-86
2021/12/26 01:00:45;;;;;;;15.13;7.65;;;;;;;-2.93;75.80;100605.63;10464479;28;20037;-85
2021/12/26 01:05:49;;;;;;;15.25;7.90;;;;;;;-2.91;76.53;100604.09;10439931;28;20032;-85
2021/12/26 01:10:53;;;;;;;13.63;6.28;;;;;;;-2.76;76.21;100607.25;10454052;28;20025;-86
2021/12/26 01:15:56;;;;;;;10.85;6.20;;;;;;;-2.75;76.77;100611.63;10458722;28;20029;-86
2021/12/26 01:21:05;;;;;;;12.30;7.28;;;;;;;-2.75;76.72;100609.06;10472666;28;20040;-86
2021/12/26 01:26:05;;;;;;;8.73;5.85;;;;;;;-2.75;77.98;100599.72;10456175;28;20028;-86
2021/12/26 01:31:06;;;;;;;14.85;7.90;;;;;;;-2.67;77.23;100614.16;10454816;28;20385;-85
2021/12/26 01:36:06;;;;;;;9.75;6.53;;;;;;;-2.62;77.58;100612.06;10490167;28;20076;-86
2021/12/26 01:41:10;;;;;;;11.88;7.45;;;;;;;-2.55;77.75;100610.97;10456991;28;20496;-86
2021/12/26 01:46:10;;;;;;;17.55;8.70;;;;;;;-2.62;78.11;100600.88;10487078;28;20037;-85
2021/12/26 01:51:11;;;;;;;11.45;7.55;;;;;;;-2.71;78.27;100591.56;10453567;28;20076;-85
2021/12/26 01:56:12;;;;;;;12.88;7.25;;;;;;;-2.76;78.36;100589.34;10423886;28;20150;-85
2021/12/26 02:01:12;;;;;;;12.07;7.70;;;;;;;-2.80;78.91;100590.69;10488296;28;20044;-86
2021/12/26 02:06:13;;;;;;;14.68;6.60;;;;;;;-2.85;79.79;100592.81;10454721;28;20049;-86
2021/12/26 02:11:14;;;;;;;13.20;7.60;;;;;;;-2.76;80.37;100584.22;10443007;28;20393;-86
2021/12/26 02:16:14;;;;;;;17.42;7.45;;;;;;;-2.66;80.77;100582.66;10453317;28;20033;-86
2021/12/26 02:21:35;;;;;;;10.38;7.15;;;;;;;-2.64;79.37;100584.47;10485713;28;20179;-86
2021/12/26 02:31:55;;;;;;;12.20;6.43;;;;;;;-2.57;78.03;100581.72;10442896;28;20075;-86
2021/12/26 02:36:55;;;;;;;12.13;6.97;;;;;;;-2.69;78.16;100574.69;10469243;28;20488;-86
2021/12/26 02:41:56;;;;;;;11.18;6.85;;;;;;;-2.66;79.21;100571.53;10455481;28;20037;-86
2021/12/26 02:46:56;;;;;;;15.45;7.22;;;;;;;-2.86;79.47;100567.03;10453202;28;20037;-86
2021/12/26 02:51:57;;;;;;;12.05;6.93;;;;;;;-2.98;79.35;100564.22;10453117;28;20063;-85
2021/12/26 02:56:57;;;;;;;13.60;9.05;;;;;;;-3.10;80.13;100574.16;10469372;28;20059;-86
2021/12/26 03:01:58;;;;;;;16.15;8.05;;;;;;;-3.20;79.93;100563.78;10475593;28;20050;-86
2021/12/26 03:07:02;;;;;;;19.00;9.23;;;;;;;-3.29;80.31;100571.47;10488482;28;20039;-86
2021/12/26 03:12:03;;;;;;;13.18;9.52;;;;;;;-3.34;80.21;100560.75;10457194;28;20035;-86
2021/12/26 03:17:04;;;;;;;17.20;9.32;;;;;;;-3.44;79.98;100558.06;10471783;28;20115;-86
2021/12/26 03:22:04;;;;;;;17.20;9.32;;;;;;;-3.62;81.30;100552.03;10452676;28;20071;-85
2021/12/26 03:27:05;;;;;;;11.80;6.17;;;;;;;-3.72;81.31;100561.38;10451686;28;20021;-86
2021/12/26 03:32:06;;;;;;;15.18;8.38;;;;;;;-3.71;81.83;100560.63;10467863;28;20029;-86
2021/12/26 03:37:07;;;;;;;12.48;8.02;;;;;;;-3.76;81.53;100560.91;10433780;28;20044;-86
2021/12/26 03:42:08;;;;;;;13.00;7.30;;;;;;;-3.85;82.17;100563.47;10452723;28;20068;-86
2021/12/26 03:47:08;;;;;;;11.17;7.27;;;;;;;-3.91;83.36;100557.72;10453847;28;20037;-86
2021/12/26 03:52:09;;;;;;;10.70;7.63;;;;;;;-3.98;82.96;100553.63;10459541;28;20052;-86
2021/12/26 03:57:10;;;;;;;14.98;7.97;;;;;;;-4.08;83.30;100556.94;10458796;28;20060;-86
2021/12/26 04:02:10;;;;;;;14.10;7.80;;;;;;;-4.03;83.80;100544.59;10474479;28;20096;-86
2021/12/26 04:07:11;;;;;;;11.30;8.23;;;;;;;-4.15;84.23;100547.72;10458061;28;20048;-86
2021/12/26 04:12:12;;;;;;;13.10;8.60;;;;;;;-4.16;84.36;100548.47;10459207;28;20032;-87
2021/12/26 04:17:12;;;;;;;13.00;8.87;;;;;;;-4.18;84.55;100536.31;10459011;28;20120;-87
2021/12/26 04:22:13;;;;;;;16.45;8.93;;;;;;;-4.11;85.15;100532.69;10459072;28;20119;-87
2021/12/26 04:27:13;;;;;;;12.07;6.27;;;;;;;-4.12;84.61;100529.25;10458203;28;20068;-86
2021/12/26 04:32:14;;;;;;;11.00;7.87;;;;;;;-4.13;84.48;100547.91;10458202;28;20491;-86
2021/12/26 04:37:14;;;;;;;15.17;8.53;;;;;;;-4.11;84.79;100540.38;10456427;28;20064;-87
2021/12/26 04:42:15;;;;;;;13.47;7.37;;;;;;;-4.19;84.29;100532.84;10442079;28;20048;-86
2021/12/26 04:47:16;;;;;;;13.27;7.57;;;;;;;-4.13;84.58;100522.34;10472951;28;20025;-87
2021/12/26 04:52:17;;;;;;;11.90;7.97;;;;;;;-4.08;84.94;100531.38;10492247;28;20476;-87
2021/12/26 04:57:17;;;;;;;13.35;6.97;;;;;;;-4.04;84.60;100532.56;10456035;28;20120;-88
2021/12/26 05:02:17;;;;;;;17.30;8.90;;;;;;;-4.20;84.69;100537.81;10441404;28;20460;-88
2021/12/26 05:07:18;;;;;;;15.90;9.43;;;;;;;-4.19;85.08;100522.59;10490300;28;20111;-87
2021/12/26 05:12:18;;;;;;;13.30;8.77;;;;;;;-4.29;85.48;100538.69;10456907;28;20021;-87
2021/12/26 05:17:19;;;;;;;12.40;8.33;;;;;;;-4.10;85.61;100527.75;10452240;28;20056;-82
2021/12/26 05:22:20;;;;;;;11.83;6.90;;;;;;;-4.08;86.16;100533.00;10471460;28;20115;-87
2021/12/26 05:27:20;;;;;;;13.10;7.70;;;;;;;-3.87;85.52;100516.38;10456396;28;20447;-85
2021/12/26 05:32:21;;;;;;;12.30;7.17;;;;;;;-3.95;85.14;100515.59;10488577;28;20025;-85
2021/12/26 05:37:21;;;;;;;14.67;8.80;;;;;;;-3.87;85.51;100507.03;10455215;28;20080;-85
2021/12/26 05:42:22;;;;;;;14.55;8.05;;;;;;;-3.75;84.82;100506.44;10456938;28;20033;-85
2021/12/26 05:47:23;;;;;;;12.63;8.77;;;;;;;-3.64;85.14;100510.94;10454904;28;20036;-85
2021/12/26 05:52:23;;;;;;;9.25;5.88;;;;;;;-3.52;84.80;100512.91;10453927;28;20028;-85
2021/12/26 05:57:24;;;;;;;13.20;7.53;;;;;;;-3.39;84.07;100508.22;10455659;28;20082;-82
2021/12/26 06:02:24;;;;;;;11.80;5.68;;;;;;;-3.31;84.42;100494.50;10454549;28;20043;-87
2021/12/26 06:07:25;;;;;;;13.93;8.70;;;;;;;-3.29;84.55;100495.56;10452282;28;20113;-83
2021/12/26 06:12:25;;;;;;;16.07;8.67;;;;;;;-3.13;83.91;100482.59;10456565;28;20070;-84
2021/12/26 06:17:26;;;;;;;14.32;9.63;;;;;;;-3.10;83.73;100492.22;10468927;28;20044;-84
2021/12/26 06:22:26;;;;;;;15.48;8.82;;;;;;;-3.03;83.03;100478.38;10454731;28;20041;-84
2021/12/26 06:27:27;;;;;;;13.60;8.67;;;;;;;-3.07;83.50;100478.81;10437773;28;20029;-84
2021/12/26 06:32:27;;;;;;;14.23;9.65;;;;;;;-3.15;83.83;100484.13;10488785;28;20119;-84
2021/12/26 06:37:29;;;;;;;13.05;8.77;;;;;;;-3.04;83.90;100477.44;10484128;28;20126;-84
2021/12/26 06:42:31;;;;;;;14.82;9.52;;;;;;;-3.05;84.27;100480.75;10434971;28;20060;-84
2021/12/26 06:47:31;;;;;;;;;;;;;;;-2.93;83.85;100495.50;10447323;28;20041;-84
2021/12/26 06:52:32;;;;;;;14.98;8.43;;;;;;;-2.99;84.11;100489.03;10468525;28;19971;-88
2021/12/26 06:57:33;;;;;;;16.92;10.45;;;;;;;-2.97;84.14;100500.31;10436525;28;20033;-84
2021/12/26 07:02:33;;;;;;;18.98;10.30;;;;;;;-2.86;83.67;100500.44;10452111;28;20033;-85
2021/12/26 07:07:34;;;;;;;16.80;10.02;;;;;;;-2.89;84.08;100506.19;10467632;28;20119;-83
2021/12/26 07:12:34;;;;;;;12.70;9.38;;;;;;;-2.92;84.05;100498.22;10450244;28;20025;-85
2021/12/26 07:17:35;;;;;;;13.02;7.45;;;;;;;-2.69;83.40;100499.50;10452617;28;20060;-85
2021/12/26 07:22:35;;;;;;;16.13;8.82;;;;;;;-2.69;83.61;100495.25;10470034;28;20067;-88
2021/12/26 07:27:36;;;;;;;12.95;9.27;;;;;;;-2.60;83.08;100489.19;10444356;28;20358;-89
2021/12/26 07:32:36;;;;;;;16.30;9.20;;;;;;;-2.49;83.12;100482.53;10442613;28;20162;-84
2021/12/26 07:37:37;;;;;;;17.15;9.15;;;;;;;-2.52;83.01;100494.28;10458726;28;20437;-84
2021/12/26 07:42:37;;;;;;;18.48;11.02;;;;;;;-2.55;83.77;100488.88;10459116;28;20043;-85
2021/12/26 07:47:39;;;;;;;18.55;9.93;;;;;;;-2.41;83.55;100485.03;10458730;28;20125;-83
2021/12/26 07:52:42;;;;;;;17.97;11.80;;;;;;;-2.28;83.31;100493.84;10460695;28;20032;-83
2021/12/26 07:57:48;;;;;;;15.15;9.43;;;;;;;-2.30;82.51;100491.16;10458155;28;20299;-83
2021/12/26 08:02:51;;;;;;;16.70;10.95;;;;;;;-2.32;82.77;100495.25;10419218;28;20040;-82
2021/12/26 08:07:52;;;;;;;14.25;8.68;;;;;;;-2.15;82.30;100507.06;10472084;28;20089;-82
2021/12/26 08:12:52;;;;;;;14.55;9.98;;;;;;;-2.07;82.66;100502.66;10499108;28;20499;-83
2021/12/26 08:17:53;;;;;;;16.23;8.43;;;;;;;-2.10;82.30;100494.66;10475306;28;20036;-82
2021/12/26 08:22:54;;;;;;;16.15;10.32;;;;;;;-2.07;83.23;100497.50;10463689;28;20120;-84
2021/12/26 08:27:55;;;;;;;18.52;11.60;;;;;;;-1.94;83.67;100495.31;10443089;28;20025;-83
2021/12/26 08:33:04;;;;;;;20.00;10.38;;;;;;;-1.60;82.73;100499.13;10447470;28;20104;-86
2021/12/26 08:38:08;;;;;;;16.60;10.23;;;;;;;-1.60;82.78;100489.75;10453507;28;20051;-83
2021/12/26 08:43:08;;;;;;;17.05;10.30;;;;;;;-1.50;82.54;100494.94;10450829;28;20489;-86
2021/12/26 08:48:09;;;;;;;12.90;9.57;;;;;;;-1.36;82.55;100496.22;10455183;28;20021;-85
2021/12/26 08:53:10;;;;;;;16.05;9.20;;;;;;;-1.32;82.56;100489.66;10458525;28;20030;-84
2021/12/26 08:58:10;;;;;;;21.80;13.07;;;;;;;-1.20;83.05;100495.88;10446244;28;20032;-82
2021/12/26 09:03:12;;;;;;;19.38;11.18;;;;;;;-1.02;82.92;100495.69;10424767;28;20070;-84
2021/12/26 09:08:12;;;;;;;18.60;12.60;;;;;;;-0.79;82.77;100491.66;10413603;28;20385;-83
2021/12/26 09:13:13;;;;;;;19.88;12.45;;;;;;;-0.86;82.66;100495.38;10437282;28;20162;-82
2021/12/26 09:18:14;;;;;;;18.05;12.15;;;;;;;-0.75;82.39;100486.03;10443707;28;20067;-82
2021/12/26 09:23:14;;;;;;;17.35;11.27;;;;;;;-0.73;82.52;100483.59;10386591;28;20078;-82
2021/12/26 09:28:15;;;;;;;14.77;9.45;;;;;;;-0.69;83.42;100478.84;10436473;28;20066;-84
2021/12/26 09:33:19;;;;;;;18.67;12.15;;;;;;;-0.41;83.14;100486.34;10427283;28;20040;-85
2021/12/26 09:38:20;;;;;;;17.92;11.88;;;;;;;-0.34;82.55;100469.78;10431118;28;20103;-85
2021/12/26 09:43:22;;;;;;;19.27;13.57;;;;;;;-0.22;82.31;100473.41;10422474;28;20044;-84
2021/12/26 09:48:24;;;;;;;19.67;12.93;;;;;;;-0.01;82.23;100478.56;10387410;28;20037;-86
2021/12/26 09:53:25;;;;;;;18.50;12.93;;;;;;;0.21;81.64;100488.94;10402249;28;20037;-85
2021/12/26 09:58:25;;;;;;;22.63;13.75;;;;;;;0.46;81.62;100475.50;10419622;28;20040;-87
2021/12/26 10:03:36;;;;;;;20.65;14.10;;;;;;;0.63;80.29;100473.41;10431520;28;20311;-88
2021/12/26 10:08:54;;;;;;;18.38;12.80;;;;;;;0.64;81.11;100462.34;10433133;28;20020;-86
2021/12/26 10:14:00;;;;;;;25.80;16.00;;;;;;;0.81;80.23;100458.56;10450626;28;20092;-85
2021/12/26 10:19:01;;;;;;;22.73;13.45;;;;;;;0.90;79.85;100450.63;10449743;28;20025;-85
2021/12/26 10:24:26;;;;;;;22.92;13.82;;;;;;;0.96;80.14;100431.44;10439720;28;20032;-86
2021/12/26 10:29:38;;;;;;;21.90;15.85;;;;;;;1.05;79.87;100436.38;10475711;28;20060;-86
2021/12/26 10:34:42;;;;;;;27.48;15.45;;;;;;;1.03;78.96;100432.78;10455412;28;20033;-88
2021/12/26 10:39:45;;;;;;;22.83;12.35;;;;;;;1.16;80.44;100426.94;10446935;28;20459;-86
2021/12/26 10:44:51;;;;;;;22.70;14.20;;;;;;;1.35;79.41;100418.94;10465617;28;20107;-86
2021/12/26 10:49:59;;;;;;;34.15;15.38;;;;;;;1.58;80.21;100417.22;10453044;28;20033;-86
2021/12/26 10:55:02;;;;;;;22.02;13.18;;;;;;;1.65;78.63;100406.59;10469617;28;20358;-86
2021/12/26 11:00:16;;;;;;;22.58;14.13;;;;;;;1.58;78.15;100406.91;10488196;28;20025;-86
2021/12/26 11:05:44;;;;;;;22.83;14.10;;;;;;;1.60;78.65;100405.34;10452425;28;20044;-85
2021/12/26 11:10:49;;;;;;;24.30;16.00;;;;;;;1.74;78.53;100398.66;10455553;28;20539;-85
2021/12/26 11:15:55;;;;;;;25.00;14.73;;;;;;;1.76;78.65;100391.94;10431085;28;21567;-87
2021/12/26 11:21:00;;;;;;;26.10;14.15;;;;;;;2.00;78.49;100390.28;10451875;28;20036;-84
2021/12/26 11:26:05;;;;;;;28.33;15.45;;;;;;;1.97;78.29;100387.47;10442204;28;20029;-83
2021/12/26 11:31:08;;;;;;;28.35;15.88;;;;;;;1.88;77.98;100385.13;10438326;28;20539;-83
2021/12/26 11:36:10;;;;;;;25.20;14.32;;;;;;;1.85;79.17;100389.13;10467284;28;20079;-84
2021/12/26 11:41:31;;;;;;;22.30;14.88;;;;;;;1.95;79.30;100391.63;10421297;28;20048;-83
2021/12/26 11:46:35;;;;;;;23.10;15.63;;;;;;;1.99;77.91;100382.44;10450842;28;20624;-84
2021/12/26 11:51:48;;;;;;;23.88;13.70;;;;;;;2.01;79.01;100384.34;10449238;28;20033;-83
2021/12/26 11:57:07;;;;;;;24.55;14.25;;;;;;;2.09;78.36;100389.16;10453743;28;20044;-84
2021/12/26 12:02:10;;;;;;;28.05;15.98;;;;;;;2.12;78.69;100397.13;10453496;28;20033;-84
2021/12/26 12:07:10;;;;;;;18.45;13.45;;;;;;;2.14;78.15;100385.22;10455528;28;20042;-84
2021/12/26 12:12:12;;;;;;;26.15;15.30;;;;;;;2.18;78.57;100388.16;10500525;28;20108;-84
2021/12/26 12:17:18;;;;;;;19.75;13.07;;;;;;;2.23;79.18;100369.53;10488553;28;20381;-84
2021/12/26 12:22:19;;;;;;;26.42;14.35;;;;;;;2.22;78.72;100376.38;10460649;28;20489;-84
2021/12/26 12:27:20;;;;;;;22.30;12.95;;;;;;;2.26;79.05;100377.50;10486325;28;20055;-84
2021/12/26 12:32:22;;;;;;;22.73;15.48;;;;;;;2.34;78.45;100372.09;10477061;28;20039;-84
2021/12/26 12:37:36;;;;;;;21.23;14.02;;;;;;;2.35;79.06;100363.56;10496090;28;20554;-84
2021/12/26 12:42:37;;;;;;;23.15;13.00;;;;;;;2.26;79.10;100359.44;10493147;28;20416;-84
2021/12/26 12:47:37;;;;;;;30.60;15.15;;;;;;;2.27;79.55;100356.06;10465028;28;20079;-84
2021/12/26 12:52:42;;;;;;;21.73;12.07;;;;;;;2.38;78.73;100350.00;10469597;28;20061;-83
2021/12/26 12:57:50;;;;;;;26.60;13.05;;;;;;;2.41;79.05;100349.28;10479278;28;20036;-83
2021/12/26 13:02:54;;;;;;;22.35;14.63;;;;;;;2.42;79.33;100333.94;10477722;28;20038;-84
2021/12/26 13:08:01;;;;;;;20.83;13.80;;;;;;;2.40;79.77;100329.41;10447098;28;20025;-83
2021/12/26 13:13:09;;;;;;;21.30;13.93;;;;;;;2.35;79.65;100322.25;10456715;28;20114;-83
2021/12/26 13:18:10;;;;;;;20.48;13.60;;;;;;;2.46;79.96;100322.09;10437882;28;20029;-84
2021/12/26 13:23:11;;;;;;;19.80;13.30;;;;;;;2.39;79.69;100323.38;10438556;28;20061;-83
2021/12/26 13:28:14;;;;;;;24.02;15.50;;;;;;;2.33;80.21;100326.41;10438805;28;20629;-83
2021/12/26 13:33:15;;;;;;;21.88;11.85;;;;;;;2.32;80.50;100321.13;10460790;28;20047;-86
2021/12/26 13:38:16;;;;;;;25.23;15.85;;;;;;;2.31;80.66;100319.34;10468760;28;20475;-83
2021/12/26 13:43:34;;;;;;;26.08;13.75;;;;;;;2.34;80.88;100306.66;10489252;28;20040;-85
2021/12/26 13:48:39;;;;;;;22.13;13.55;;;;;;;2.51;80.57;100294.03;10464804;28;20044;-86
2021/12/26 13:53:40;;;;;;;23.60;15.73;;;;;;;2.41;80.64;100288.22;10436227;28;20461;-85
2021/12/26 13:58:41;;;;;;;19.58;12.90;;;;;;;2.25;81.25;100303.41;10453317;28;20063;-87
2021/12/26 14:03:46;;;;;;;25.65;17.55;;;;;;;2.20;81.42;100309.13;10452952;28;20095;-85
2021/12/26 14:08:50;;;;;;;23.15;16.38;;;;;;;2.17;82.16;100303.75;10450109;28;20037;-88
2021/12/26 14:13:53;;;;;;;27.88;16.95;;;;;;;2.19;82.16;100293.50;10469110;28;20036;-87
2021/12/26 14:18:54;;;;;;;33.25;18.90;;;;;;;2.11;82.60;100286.91;10482641;28;20062;-87
2021/12/26 14:23:56;;;;;;;19.35;12.95;;;;;;;2.09;82.35;100291.97;10439357;28;20025;-86
2021/12/26 14:29:03;;;;;;;24.87;14.73;;;;;;;2.13;82.74;100290.50;10452476;28;20071;-87
2021/12/26 14:34:16;;;;;;;19.50;12.18;;;;;;;2.11;83.08;100295.56;10449003;28;20378;-87
2021/12/26 14:39:25;;;;;;;19.85;14.23;;;;;;;2.13;83.05;100281.06;10467948;28;20041;-88
2021/12/26 14:44:27;;;;;;;19.98;14.15;;;;;;;2.22;82.70;100280.81;10469290;28;20052;-85
2021/12/26 14:49:27;;;;;;;22.48;13.13;;;;;;;2.19;82.55;100296.09;10404450;28;20036;-84
2021/12/26 14:54:47;;;;;;;23.90;16.75;;;;;;;2.14;82.84;100288.03;10453948;28;20060;-85
2021/12/26 14:59:50;;;;;;;24.13;15.75;;;;;;;2.17;82.83;100292.50;10436949;28;20542;-86
2021/12/26 15:05:00;;;;;;;23.00;14.25;;;;;;;2.14;82.65;100289.72;10485812;28;20036;-86
2021/12/26 15:10:02;;;;;;;24.20;16.25;;;;;;;2.16;83.35;100283.88;10453395;28;20029;-87
2021/12/26 15:15:29;;;;;;;22.05;13.65;;;;;;;2.08;83.18;100285.00;10451163;28;20064;-88
2021/12/26 15:20:36;;;;;;;26.77;18.08;;;;;;;2.08;83.25;100279.84;10425010;28;20045;-87
2021/12/26 15:25:45;;;;;;;26.00;17.77;;;;;;;2.05;83.62;100277.03;10440527;28;20037;-88
2021/12/26 15:31:07;;;;;;;28.20;15.73;;;;;;;2.02;84.02;100275.13;10468885;28;20033;-89
2021/12/26 15:36:16;;;;;;;26.17;15.43;;;;;;;2.06;83.63;100265.94;10465303;28;20056;-88
2021/12/26 15:41:26;;;;;;;23.08;13.93;;;;;;;2.08;83.59;100266.03;10468476;28;20044;-88
2021/12/26 15:46:28;;;;;;;30.25;17.15;;;;;;;2.11;83.53;100266.25;10459503;28;20071;-87
2021/12/26 15:51:29;;;;;;;21.85;15.10;;;;;;;2.07;83.55;100267.72;10459695;28;20079;-88
2021/12/26 15:56:29;;;;;;;25.15;14.10;;;;;;;2.05;83.59;100266.72;10425182;28;20090;-87
2021/12/26 16:01:30;;;;;;;25.60;16.42;;;;;;;2.02;83.44;100258.75;10460198;28;20029;-86
2021/12/26 16:06:30;;;;;;;23.02;15.23;;;;;;;1.98;83.66;100259.31;10442660;28;20048;-86
2021/12/26 16:11:31;;;;;;;21.50;13.73;;;;;;;1.97;83.67;100255.81;10459659;28;20393;-87
2021/12/26 16:16:31;;;;;;;21.70;14.60;;;;;;;1.94;83.34;100254.72;10474302;28;20045;-87
2021/12/26 16:21:32;;;;;;;20.13;13.60;;;;;;;1.94;83.46;100257.31;10459159;28;20128;-87
2021/12/26 16:26:32;;;;;;;22.13;14.55;;;;;;;1.89;83.78;100250.13;10401236;28;20093;-87
2021/12/26 16:31:33;;;;;;;28.02;17.00;;;;;;;1.98;83.64;100243.84;10472940;28;20052;-87
2021/12/26 16:36:33;;;;;;;20.63;13.93;;;;;;;1.99;83.53;100250.78;10459078;28;20519;-86
2021/12/26 16:41:34;;;;;;;22.00;15.95;;;;;;;2.05;83.45;100248.66;10459831;28;20037;-95
2021/12/26 16:46:34;;;;;;;28.25;14.95;;;;;;;2.02;82.87;100249.31;10441007;28;20036;-85
2021/12/26 16:51:37;;;;;;;23.23;14.65;;;;;;;1.97;83.64;100248.09;10441539;28;20083;-86
2021/12/26 16:56:37;;;;;;;18.92;13.60;;;;;;;2.03;83.64;100238.19;10458550;28;20059;-86
2021/12/26 17:01:38;;;;;;;24.95;14.02;;;;;;;2.03;83.45;100245.06;10490990;28;20056;-86
2021/12/26 17:06:39;;;;;;;22.60;12.75;;;;;;;1.99;83.76;100236.19;10441474;28;20041;-86
2021/12/26 17:11:39;;;;;;;20.83;13.30;;;;;;;2.05;83.75;100243.50;10458130;28;20056;-85
2021/12/26 17:16:40;;;;;;;20.85;11.82;;;;;;;2.01;83.75;100237.19;10457739;28;20420;-85
2021/12/26 17:21:40;;;;;;;20.67;13.27;;;;;;;1.96;84.16;100242.81;10456581;28;20071;-85
2021/12/26 17:26:41;;;;;;;21.63;14.52;;;;;;;1.86;85.48;100230.94;10455584;28;20060;-85
2021/12/26 17:31:41;;;;;;;24.58;16.08;;;;;;;1.75;86.24;100228.47;10440746;28;20045;-84
2021/12/26 17:36:42;;;;;;;22.25;15.18;;;;;;;1.69;86.70;100224.56;10454895;28;20029;-84
2021/12/26 17:41:42;;;;;;;23.10;15.80;;;;;;;1.64;87.22;100236.22;10406819;28;20439;-84
2021/12/26 17:46:43;;;;;;;23.20;14.48;;;;;;;1.69;87.85;100235.75;10455220;28;20041;-84
2021/12/26 17:51:43;;;;;;;24.95;15.13;;;;;;;1.60;88.24;100230.84;10456013;28;20108;-85
2021/12/26 17:56:45;;;;;;;29.60;17.30;;;;;;;1.63;88.94;100227.56;10456035;28;20503;-84
2021/12/26 18:01:54;;;;;;;30.00;19.37;;;;;;;1.65;88.84;100222.53;10456436;28;20052;-84
2021/12/26 18:06:54;;;;;;;31.20;18.55;;;;;;;1.69;88.95;100227.13;10470393;28;20326;-85
2021/12/26 18:11:55;;;;;;;30.52;20.90;;;;;;;1.70;89.55;100227.22;10451036;28;20056;-89
2021/12/26 18:16:55;;;;;;;31.88;19.65;;;;;;;1.69;89.78;100219.41;10437625;28;20036;-88
2021/12/26 18:21:56;;;;;;;28.55;20.05;;;;;;;1.68;89.96;100221.06;10456712;28;20432;-90
2021/12/26 18:26:56;;;;;;;28.92;19.58;;;;;;;1.67;90.03;100218.38;10453735;28;20056;-86
2021/12/26 18:31:58;;;;;;;29.83;21.70;;;;;;;1.68;90.09;100215.03;10453313;28;20116;-86
2021/12/26 18:36:58;;;;;;;25.87;19.07;;;;;;;1.75;89.72;100209.53;10469646;28;20041;-86
2021/12/26 18:42:00;;;;;;;29.13;20.85;;;;;;;1.75;89.82;100214.69;10437703;28;20087;-85
2021/12/26 18:47:00;;;;;;;30.87;19.07;;;;;;;1.74;89.86;100208.63;10453700;28;20029;-85
2021/12/26 18:52:01;;;;;;;33.15;20.17;;;;;;;1.74;89.75;100202.56;10420937;28;20052;-86
2021/12/26 18:57:02;;;;;;;34.25;20.58;;;;;;;1.68;90.03;100209.88;10436693;28;20021;-85
2021/12/26 19:02:03;;;;;;;33.37;20.77;;;;;;;1.67;90.06;100208.94;10453227;28;20024;-85
2021/12/26 19:07:04;;;;;;;28.67;20.80;;;;;;;1.69;90.08;100209.97;10453098;28;20048;-88
2021/12/26 19:12:07;;;;;;;36.40;21.88;;;;;;;1.76;90.01;100209.63;10452310;28;20119;-89
2021/12/26 19:17:11;;;;;;;30.27;20.15;;;;;;;1.79;89.98;100205.47;10467888;28;20154;-85
2021/12/26 19:22:11;;;;;;;31.15;18.13;;;;;;;1.73;90.00;100203.34;10454193;28;20032;-89
2021/12/26 19:27:12;;;;;;;33.72;21.02;;;;;;;1.70;89.87;100191.13;10451747;28;20052;-84
2021/12/26 19:32:14;;;;;;;30.60;21.13;;;;;;;1.78;89.79;100188.19;10453096;28;20029;-89
2021/12/26 19:37:15;;;;;;;33.63;18.88;;;;;;;1.80;89.80;100191.78;10452866;28;20489;-88
2021/12/26 19:42:18;;;;;;;33.67;19.20;;;;;;;1.78;89.43;100199.44;10451716;28;20033;-88
2021/12/26 19:47:19;;;;;;;28.30;18.33;;;;;;;1.81;89.71;100193.56;10451126;28;20021;-87
2021/12/26 19:52:19;;;;;;;33.63;22.30;;;;;;;1.82;89.32;100204.03;10468990;28;20472;-89
2021/12/26 19:57:20;;;;;;;32.58;21.45;;;;;;;1.78;89.41;100189.09;10451996;28;20064;-89
2021/12/26 20:02:20;;;;;;;33.33;22.55;;;;;;;1.79;89.38;100183.16;10436389;28;20087;-89
2021/12/26 20:07:21;;;;;;;28.48;20.10;;;;;;;1.75;89.21;100181.16;10435441;28;20437;-89
2021/12/26 20:12:22;;;;;;;32.40;19.77;;;;;;;1.72;89.05;100183.50;10451291;28;20063;-90
2021/12/26 20:17:25;;;;;;;34.30;19.92;;;;;;;1.70;89.42;100179.91;10452241;28;20473;-92
2021/12/26 20:22:28;;;;;;;28.65;17.17;;;;;;;1.71;89.22;100174.84;10456787;28;20358;-90
2021/12/26 20:27:29;;;;;;;27.10;17.33;;;;;;;1.74;89.45;100169.91;10451986;28;20033;-87
2021/12/26 20:32:30;;;;;;;31.55;19.83;;;;;;;1.80;89.24;100174.63;10460133;28;20526;-93
2021/12/26 20:37:30;;;;;;;28.13;20.85;;;;;;;1.83;88.79;100180.00;10457488;28;20051;-89
2021/12/26 20:42:31;;;;;;;26.75;18.15;;;;;;;1.82;88.80;100169.56;10442829;28;20163;-89
2021/12/26 20:47:31;;;;;;;25.77;17.77;;;;;;;1.75;88.58;100170.81;10457994;28;20059;-89
2021/12/26 20:52:32;;;;;;;26.88;18.90;;;;;;;1.60;88.85;100156.03;10490608;28;20052;-92
2021/12/26 20:57:32;;;;;;;32.25;22.13;;;;;;;1.53;89.62;100152.88;10441671;28;20108;-86
2021/12/26 21:02:33;;;;;;;32.58;21.80;;;;;;;1.49;90.05;100150.88;10456104;28;20043;-87
2021/12/26 21:07:33;;;;;;;30.83;20.00;;;;;;;1.51;90.38;100149.31;10456639;28;20035;-87
2021/12/26 21:12:34;;;;;;;28.63;21.27;;;;;;;1.43;90.48;100152.22;10457316;28;20056;-87
2021/12/26 21:17:35;;;;;;;36.00;26.38;;;;;;;1.45;90.63;100153.22;10458614;28;20025;-88
2021/12/26 21:22:36;;;;;;;38.80;23.52;;;;;;;1.46;91.02;100155.03;10457549;28;20037;-87
2021/12/26 21:27:37;;;;;;;38.83;23.08;;;;;;;1.44;91.02;100147.97;10456669;28;20461;-88
2021/12/26 21:32:38;;;;;;;38.15;23.50;;;;;;;1.43;91.10;100154.81;10457717;28;20025;-87
2021/12/26 21:37:39;;;;;;;39.73;25.07;;;;;;;1.43;91.72;100148.75;10439409;28;20094;-88
2021/12/26 21:42:40;;;;;;;35.10;22.30;;;;;;;1.48;91.30;100142.25;10437018;28;20435;-87
2021/12/26 21:47:41;;;;;;;39.55;27.75;;;;;;;1.51;91.74;100144.13;10441997;28;20035;-85
2021/12/26 21:52:44;;;;;;;52.92;42.03;;;;;;;1.44;91.63;100130.81;10456504;28;20040;-85
2021/12/26 21:57:45;;;;;;;34.03;22.35;;;;;;;1.42;91.47;100132.38;10453599;28;20036;-86
2021/12/26 22:02:47;;;;;;;40.40;27.02;;;;;;;1.43;91.87;100125.56;10453942;28;20041;-86
2021/12/26 22:07:48;;;;;;;;;;;;;;;1.40;91.91;100126.22;10438089;28;20037;-86
2021/12/26 22:12:48;;;;;;;44.15;26.45;;;;;;;1.39;92.15;100126.13;10488414;28;20287;-86
2021/12/26 22:17:49;;;;;;;49.33;29.60;;;;;;;1.38;91.98;100135.50;10453196;28;20144;-84
2021/12/26 22:22:50;;;;;;;47.08;30.00;;;;;;;1.41;92.04;100133.16;10452462;28;20405;-84
2021/12/26 22:27:51;;;;;;;52.10;30.45;;;;;;;1.46;92.49;100136.09;10453385;28;20025;-86
2021/12/26 22:32:52;;;;;;;47.33;28.00;;;;;;;1.48;92.54;100136.19;10453275;28;20065;-81
2021/12/26 22:37:52;;;;;;;49.65;31.92;;;;;;;1.49;92.59;100123.41;10451434;28;20061;-90
2021/12/26 22:42:53;;;;;;;49.05;29.70;;;;;;;1.48;92.25;100112.97;10471018;28;20511;-85
2021/12/26 22:47:53;;;;;;;46.30;30.52;;;;;;;1.49;92.59;100117.34;10485593;28;20021;-85
2021/12/26 22:52:54;;;;;;;50.10;29.73;;;;;;;1.53;92.61;100114.19;10468601;28;20117;-84
2021/12/26 22:57:54;;;;;;;48.20;30.25;;;;;;;1.55;92.98;100121.28;10485028;28;20064;-85